Bemis Heights, New York
Current Conditions -  °F | °C
As of 10:51 PM on Tuesday 25 Nov 2014 (Local Time) from KALB Reporting Station
Broken Clouds Broken Clouds  
Wind Chill: 36°   Ceiling: 26000
Heat Index: 36°   Visibility: 10mi
Dew Point: 27°   Wind: 3mph
Humidity: 70%   Direction: 240°WSW
Pressure: 30.15"   Gusts: NA
Location:  43.0236°N, 73.676°W
Report Text: KALB 260351Z 24003KT 10SM BKN260 02/M03 A3015 RMK AO2 SLP212 T00221028
Loading
Personal Weather Stations






























Interactive Weather Map New forecast layout! Learn more

10-Day Weather Forecast

Advertisements
Track Severe Weather on mobile